Time;durP1;ratioP1;P1;durP2;ratioP2;P2;SDS_P1;SDS_P2;PMS_P1;PMS_P2;Temp;Humidity;BMP_temperature;BMP_pressure;BME280_temperature;BME280_humidity;BME280_pressure;Samples;Min_cycle;Max_cycle;Signal;HPM_P1;HPM_P2
2022/12/26 00:01:41;;;;;;;150.45;36.00;;;;;;;3.79;100.00;101567.99;1780280;80;21253;-91
2022/12/26 00:04:08;;;;;;;147.68;36.15;;;;;;;3.80;100.00;101571.81;1767682;80;21007;-90
2022/12/26 00:06:34;;;;;;;171.07;34.53;;;;;;;3.79;100.00;101577.33;1764283;80;21010;-90
2022/12/26 00:09:03;;;;;;;191.25;34.92;;;;;;;3.76;100.00;101574.53;1769552;80;21012;-88
2022/12/26 00:11:30;;;;;;;170.00;34.83;;;;;;;3.76;100.00;101574.53;1762255;79;21561;-89
2022/12/26 00:14:02;;;;;;;184.78;33.75;;;;;;;3.77;100.00;101583.38;1758835;80;21555;-89
2022/12/26 00:16:28;;;;;;;216.25;32.88;;;;;;;3.75;100.00;101580.06;1690112;83;21106;-89
2022/12/26 00:18:55;;;;;;;183.68;33.83;;;;;;;3.74;100.00;101581.09;1673388;84;21638;-90
2022/12/26 00:21:26;;;;;;;185.85;32.78;;;;;;;3.71;100.00;101586.80;1671685;84;21075;-89
2022/12/26 00:23:54;;;;;;;223.62;36.83;;;;;;;3.70;100.00;101588.62;1674400;83;21576;-89
2022/12/26 00:30:02;;;;;;;217.43;34.75;;;;;;;3.73;100.00;101588.75;1673441;84;21099;-90
2022/12/26 00:32:28;;;;;;;188.10;33.28;;;;;;;3.72;100.00;101587.93;1667544;84;21066;-91
2022/12/26 00:34:54;;;;;;;177.12;35.05;;;;;;;3.71;100.00;101590.80;1667035;83;21085;-89
2022/12/26 00:37:21;;;;;;;180.22;33.40;;;;;;;3.69;100.00;101599.48;1671261;84;21409;-90
2022/12/26 00:39:47;;;;;;;181.80;35.33;;;;;;;3.71;100.00;101604.13;1670836;84;21182;-90
2022/12/26 00:42:13;;;;;;;188.60;33.65;;;;;;;3.73;100.00;101602.90;1663008;84;21078;-90
2022/12/26 00:44:39;;;;;;;225.87;35.75;;;;;;;3.73;100.00;101602.90;1687325;83;21086;-89
2022/12/26 00:47:06;;;;;;;215.80;33.25;;;;;;;3.80;100.00;101605.66;1670922;85;21071;-89
2022/12/26 00:49:32;;;;;;;214.38;34.67;;;;;;;3.75;100.00;101614.20;1670094;84;21035;-90
2022/12/26 00:51:58;;;;;;;334.32;39.38;;;;;;;3.78;100.00;101617.00;1670902;84;21693;-88
2022/12/26 00:54:24;;;;;;;352.13;37.98;;;;;;;3.79;100.00;101611.47;1670029;84;21570;-90
2022/12/26 00:56:51;;;;;;;295.97;37.13;;;;;;;3.74;100.00;101608.57;1674416;84;21117;-89
2022/12/26 00:59:17;;;;;;;257.30;34.88;;;;;;;3.79;100.00;101612.80;1673505;84;21093;-90
2022/12/26 01:01:43;;;;;;;268.75;34.67;;;;;;;3.80;100.00;101609.66;1671586;84;21145;-89
2022/12/26 01:04:09;;;;;;;260.00;36.73;;;;;;;3.81;100.00;101606.78;1672205;84;21151;-87
2022/12/26 01:06:36;;;;;;;241.70;35.55;;;;;;;3.79;100.00;101618.13;1672275;83;21035;-89
2022/12/26 01:09:02;;;;;;;243.48;35.40;;;;;;;3.78;100.00;101613.01;1673922;83;21087;-90
2022/12/26 01:11:41;;;;;;;221.35;32.70;;;;;;;3.84;100.00;101618.91;1673805;85;21045;-92
2022/12/26 01:14:16;;;;;;;221.65;35.25;;;;;;;3.89;100.00;101618.36;1750387;80;21471;-87
2022/12/26 01:16:46;;;;;;;187.00;35.38;;;;;;;3.89;100.00;101613.84;1740976;80;21211;-89
2022/12/26 01:19:13;;;;;;;283.43;37.23;;;;;;;3.90;100.00;101616.00;1758604;80;20991;-89
2022/12/26 01:21:41;;;;;;;244.75;34.65;;;;;;;3.88;100.00;101606.84;1752047;80;21034;-87
2022/12/26 01:24:07;;;;;;;181.63;33.05;;;;;;;3.90;100.00;101610.66;1763426;80;20980;-89
2022/12/26 01:26:33;;;;;;;206.50;36.73;;;;;;;3.89;100.00;101612.51;1760674;80;21126;-89
2022/12/26 01:29:00;;;;;;;233.07;34.78;;;;;;;3.90;100.00;101604.81;1783808;79;21130;-93
2022/12/26 01:31:26;;;;;;;176.15;33.15;;;;;;;3.96;100.00;101613.90;1768595;79;21012;-89
2022/12/26 01:33:52;;;;;;;257.20;33.02;;;;;;;3.95;100.00;101613.08;1765493;79;21082;-89
2022/12/26 01:36:19;;;;;;;231.05;34.23;;;;;;;3.99;100.00;101611.67;1774800;80;21015;-89
2022/12/26 01:38:45;;;;;;;206.78;33.38;;;;;;;4.00;100.00;101619.16;1770676;79;21613;-89
2022/12/26 01:41:21;;;;;;;259.27;34.33;;;;;;;3.98;100.00;101609.20;1775285;80;21928;-90
2022/12/26 01:43:57;;;;;;;304.50;36.03;;;;;;;4.00;100.00;101612.00;1769706;80;21010;-90
2022/12/26 01:46:29;;;;;;;293.00;31.65;;;;;;;4.00;100.00;101614.67;1780439;80;20967;-89
2022/12/26 01:49:00;;;;;;;432.77;35.20;;;;;;;4.02;100.00;101611.80;1691385;83;21049;-89
2022/12/26 01:51:30;;;;;;;353.50;33.90;;;;;;;3.99;100.00;101613.00;1688247;83;21014;-89
2022/12/26 01:54:00;;;;;;;265.18;31.90;;;;;;;3.95;100.00;101619.75;1691485;83;21127;-90
2022/12/26 01:56:36;;;;;;;318.65;33.02;;;;;;;3.94;100.00;101615.92;1692274;82;21510;-88
2022/12/26 01:59:07;;;;;;;343.20;32.85;;;;;;;3.96;100.00;101622.72;1687851;83;21200;-87
2022/12/26 02:01:37;;;;;;;357.30;34.03;;;;;;;3.98;100.00;101623.36;1685067;83;21645;-90
2022/12/26 02:06:54;;;;;;;283.25;33.13;;;;;;;3.95;100.00;101622.92;1694677;82;21071;-89
2022/12/26 02:09:21;;;;;;;442.25;34.08;;;;;;;3.98;100.00;101629.21;1693185;83;21026;-89
2022/12/26 02:11:53;;;;;;;370.37;35.13;;;;;;;4.02;100.00;101623.80;1698563;82;21113;-90
2022/12/26 02:14:19;;;;;;;403.92;35.75;;;;;;;4.08;100.00;101626.52;1694557;83;21165;-89
2022/12/26 02:16:46;;;;;;;312.15;34.38;;;;;;;4.08;100.00;101626.52;1660704;83;21116;-89
2022/12/26 02:19:45;;;;;;;452.30;35.92;;;;;;;4.05;100.00;101621.56;1700439;82;21150;-89
2022/12/26 02:22:42;;;;;;;413.63;34.70;;;;;;;4.06;100.00;101623.75;1605681;87;21084;-89
2022/12/26 02:25:25;;;;;;;430.70;36.48;;;;;;;4.03;100.00;101628.95;1609526;87;21334;-90
2022/12/26 02:28:41;;;;;;;439.07;37.95;;;;;;;4.00;100.00;101629.34;1535074;91;21054;-89
2022/12/26 02:31:22;;;;;;;368.65;35.70;;;;;;;3.98;100.00;101632.70;1530169;92;21645;-90
2022/12/26 02:34:41;;;;;;;377.68;36.03;;;;;;;3.94;100.00;101638.11;1531432;92;21314;-88
2022/12/26 02:37:35;;;;;;;290.68;35.78;;;;;;;3.90;100.00;101635.99;1523910;92;21125;-90
2022/12/26 02:40:18;;;;;;;403.05;37.10;;;;;;;3.86;100.00;101632.38;1534859;91;21689;-90
2022/12/26 02:42:48;;;;;;;;;;;;;;;3.85;100.00;101640.55;1531587;91;21567;-89
2022/12/26 02:48:48;;;;;;;397.65;37.65;;;;;;;3.80;100.00;101634.47;1575903;89;21090;-87
2022/12/26 03:15:15;;;;;;;154.75;32.48;;;;;;;3.60;100.00;101629.42;1523783;92;21135;-90
2022/12/26 03:17:49;;;;;;;155.15;32.25;;;;;;;3.59;100.00;101625.94;1537394;90;21232;-90
2022/12/26 03:20:29;;;;;;;151.78;31.25;;;;;;;3.67;100.00;101631.65;1484966;94;21185;-90
2022/12/26 03:23:03;;;;;;;174.72;32.95;;;;;;;3.66;100.00;101634.00;1497280;95;21622;-90
2022/12/26 03:28:30;;;;;;;156.47;30.92;;;;;;;3.64;100.00;101636.84;1502033;95;21178;-89
2022/12/26 03:31:00;;;;;;;149.40;31.87;;;;;;;3.63;100.00;101645.05;1502244;95;21148;-92
2022/12/26 03:36:38;;;;;;;143.85;30.25;;;;;;;3.66;100.00;101645.17;1484020;96;21136;-91
2022/12/26 04:19:23;;;;;;;153.57;36.53;;;;;;;3.95;100.00;101679.75;1473513;96;21150;-89
2022/12/26 04:44:50;;;;;;;99.50;28.52;;;;;;;3.97;100.00;101685.73;1490494;95;21110;-88
2022/12/26 04:47:17;;;;;;;92.85;26.97;;;;;;;3.99;100.00;101685.01;1464150;95;21166;-89
2022/12/26 04:52:53;;;;;;;85.85;23.70;;;;;;;3.99;100.00;101685.01;1526645;93;21141;-89
2022/12/26 04:58:38;;;;;;;88.05;24.85;;;;;;;3.97;100.00;101687.54;1474716;97;21158;-96
2022/12/26 05:09:34;;;;;;;88.20;25.35;;;;;;;4.00;100.00;101696.02;1564417;90;21122;-91
2022/12/26 05:12:02;;;;;;;84.83;24.75;;;;;;;4.07;100.00;101699.56;1588825;88;21207;-89
2022/12/26 05:14:30;;;;;;;82.35;22.87;;;;;;;4.13;100.00;101698.50;1580559;89;21054;-94
2022/12/26 05:30:55;;;;;;;78.78;23.80;;;;;;;4.45;100.00;101711.33;1674215;83;21064;-89
2022/12/26 05:36:07;;;;;;;77.85;22.58;;;;;;;4.50;100.00;101715.59;1714777;81;20941;-88
2022/12/26 05:49:00;;;;;;;83.30;24.95;;;;;;;4.46;100.00;101727.64;1709219;83;21118;-88
2022/12/26 05:51:26;;;;;;;83.85;24.10;;;;;;;4.48;100.00;101728.29;1708759;82;21113;-89
2022/12/26 05:53:52;;;;;;;78.35;23.05;;;;;;;4.49;100.00;101733.94;1721283;82;21545;-89
2022/12/26 05:56:20;;;;;;;81.60;24.45;;;;;;;4.50;100.00;101735.61;1705309;83;21606;-90
2022/12/26 05:58:46;;;;;;;89.20;24.37;;;;;;;4.52;100.00;101741.56;1707217;83;21078;-88
2022/12/26 06:01:21;;;;;;;87.67;24.92;;;;;;;4.52;100.00;101743.41;1712860;83;21649;-89
2022/12/26 06:03:51;;;;;;;86.47;25.23;;;;;;;4.51;100.00;101743.92;1717216;82;21067;-90
2022/12/26 06:09:58;;;;;;;76.72;22.65;;;;;;;4.55;100.00;101745.69;1711254;83;21640;-90
2022/12/26 06:12:25;;;;;;;65.60;21.15;;;;;;;4.57;100.00;101751.67;1700557;83;21031;-89
2022/12/26 06:14:51;;;;;;;73.20;22.65;;;;;;;4.61;100.00;101754.78;1701938;83;20984;-91
2022/12/26 06:20:57;;;;;;;75.65;22.02;;;;;;;4.63;100.00;101758.09;1748131;81;21585;-89
2022/12/26 06:23:24;;;;;;;65.57;21.40;;;;;;;4.65;100.00;101765.41;1745795;81;21054;-89
2022/12/26 06:25:55;;;;;;;64.37;19.98;;;;;;;4.64;100.00;101768.56;1747125;81;21054;-87
2022/12/26 06:28:23;;;;;;;69.37;21.90;;;;;;;4.59;100.00;101766.15;1689310;83;21059;-89
2022/12/26 06:30:51;;;;;;;75.62;22.42;;;;;;;4.58;100.00;101776.52;1700756;83;21075;-88
2022/12/26 06:33:18;;;;;;;68.62;22.42;;;;;;;4.57;100.00;101779.70;1692715;83;21072;-89
2022/12/26 06:35:44;;;;;;;72.65;22.52;;;;;;;4.59;100.00;101783.02;1702519;83;21592;-89
2022/12/26 06:38:11;;;;;;;67.75;21.42;;;;;;;4.63;100.00;101786.13;1694996;83;21135;-90
2022/12/26 06:40:40;;;;;;;65.10;20.92;;;;;;;4.66;100.00;101791.09;1703955;83;21099;-89
2022/12/26 06:43:08;;;;;;;64.72;20.30;;;;;;;4.66;100.00;101790.57;1624819;87;21247;-91
2022/12/26 06:45:35;;;;;;;58.52;19.23;;;;;;;4.68;100.00;101793.89;1627422;87;21889;-88
2022/12/26 06:48:01;;;;;;;71.62;21.73;;;;;;;4.67;100.00;101799.41;1613618;87;21608;-95
2022/12/26 06:50:30;;;;;;;65.35;21.02;;;;;;;4.65;100.00;101801.45;1604583;89;21573;-90
2022/12/26 06:52:56;;;;;;;65.97;21.60;;;;;;;4.68;100.00;101805.08;1600769;88;21858;-88
2022/12/26 06:55:22;;;;;;;63.78;19.85;;;;;;;4.68;100.00;101801.08;1602751;88;21104;-89
2022/12/26 07:05:10;;;;;;;59.10;18.67;;;;;;;4.71;100.00;101798.02;1603171;88;21074;-87
2022/12/26 07:07:36;;;;;;;63.78;20.92;;;;;;;4.72;100.00;101805.00;1601716;88;21267;-88
2022/12/26 07:10:02;;;;;;;64.05;21.12;;;;;;;4.73;100.00;101802.64;1603121;88;21244;-86
2022/12/26 07:12:29;;;;;;;68.87;22.22;;;;;;;4.72;100.00;101808.49;1601602;88;21164;-94
2022/12/26 07:14:55;;;;;;;62.25;21.52;;;;;;;4.71;100.00;101804.19;1603855;89;21117;-88
2022/12/26 07:17:21;;;;;;;63.68;20.90;;;;;;;4.71;100.00;101798.84;1607514;88;21077;-87
2022/12/26 07:19:48;;;;;;;62.10;19.67;;;;;;;4.71;100.00;101806.03;1602473;89;21550;-88
2022/12/26 07:22:14;;;;;;;61.13;21.12;;;;;;;4.69;100.00;101806.72;1602084;88;21145;-88
2022/12/26 07:24:40;;;;;;;71.28;21.33;;;;;;;4.68;100.00;101803.74;1601146;86;21192;-86
2022/12/26 07:27:06;;;;;;;61.70;20.97;;;;;;;4.67;100.00;101806.08;1655564;85;21098;-89
2022/12/26 07:29:33;;;;;;;63.48;21.65;;;;;;;4.66;100.00;101807.10;1656552;85;21090;-88
2022/12/26 07:31:59;;;;;;;69.37;21.25;;;;;;;4.65;100.00;101802.28;1630854;87;21128;-88
2022/12/26 07:34:26;;;;;;;62.62;21.20;;;;;;;4.67;100.00;101807.41;1629799;87;21104;-89
2022/12/26 07:36:53;;;;;;;48.42;17.20;;;;;;;4.71;100.00;101809.52;1628447;87;21140;-90
2022/12/26 07:39:19;;;;;;;54.48;18.27;;;;;;;4.73;100.00;101804.80;1649440;81;21084;-95
2022/12/26 07:41:57;;;;;;;50.40;16.85;;;;;;;4.81;100.00;101800.36;1699930;82;21619;-90
2022/12/26 07:44:28;;;;;;;52.33;18.17;;;;;;;4.81;100.00;101799.02;1698560;83;21069;-90
2022/12/26 07:46:56;;;;;;;45.45;16.15;;;;;;;4.83;100.00;101803.67;1672482;83;21204;-91
2022/12/26 07:49:24;;;;;;;52.85;17.57;;;;;;;4.88;100.00;101809.24;1669600;84;21103;-91
2022/12/26 07:51:50;;;;;;;46.60;16.32;;;;;;;4.88;100.00;101801.23;1671627;85;21177;-90
2022/12/26 07:54:18;;;;;;;50.73;17.75;;;;;;;4.82;100.00;101796.66;1721033;81;21074;-90
2022/12/26 07:56:45;;;;;;;51.73;17.52;;;;;;;4.80;100.00;101801.39;1727199;81;21007;-91
2022/12/26 07:59:16;;;;;;;49.63;16.93;;;;;;;4.82;100.00;101806.83;1734182;81;21056;-88
2022/12/26 08:04:47;;;;;;;49.25;16.97;;;;;;;4.99;100.00;101811.41;1703132;82;21665;-89
2022/12/26 08:07:13;;;;;;;46.53;16.07;;;;;;;5.05;100.00;101809.81;1710170;82;21049;-89
2022/12/26 08:09:41;;;;;;;47.78;15.90;;;;;;;5.03;100.00;101807.34;1701631;82;21108;-87
2022/12/26 08:12:08;;;;;;;46.98;16.23;;;;;;;5.00;100.00;101806.39;1704450;82;21068;-89
2022/12/26 08:14:37;;;;;;;51.90;17.27;;;;;;;5.04;100.00;101808.98;1706890;83;21899;-88
2022/12/26 08:17:03;;;;;;;53.52;18.82;;;;;;;5.00;100.00;101811.23;1704493;81;21041;-89
2022/12/26 08:19:29;;;;;;;51.63;16.20;;;;;;;4.96;100.00;101814.46;1706343;82;21098;-95
2022/12/26 08:21:56;;;;;;;49.58;17.10;;;;;;;4.96;100.00;101811.79;1708980;82;21024;-89
2022/12/26 08:24:22;;;;;;;43.63;15.45;;;;;;;5.04;100.00;101808.16;1708067;82;21056;-88
2022/12/26 08:26:48;;;;;;;46.60;16.23;;;;;;;5.10;100.00;101807.39;1705137;82;21076;-92
2022/12/26 08:29:15;;;;;;;43.28;14.80;;;;;;;5.17;100.00;101814.94;1708274;82;21747;-89
2022/12/26 08:31:41;;;;;;;37.30;13.80;;;;;;;5.23;100.00;101813.67;1708625;83;21076;-89
2022/12/26 08:34:08;;;;;;;37.33;12.78;;;;;;;5.20;100.00;101812.70;1702747;82;21005;-88
2022/12/26 08:36:35;;;;;;;38.70;14.23;;;;;;;5.17;100.00;101816.27;1698505;82;20969;-89
2022/12/26 08:39:01;;;;;;;37.35;13.13;;;;;;;5.14;100.00;101814.81;1709086;81;21127;-91
2022/12/26 08:41:27;;;;;;;41.10;14.13;;;;;;;5.18;100.00;101812.60;1732964;81;21095;-89
2022/12/26 08:43:54;;;;;;;40.35;14.05;;;;;;;5.20;100.00;101812.70;1717435;80;20980;-88
2022/12/26 08:46:21;;;;;;;35.38;13.75;;;;;;;5.23;100.00;101804.32;1748423;80;21499;-87
2022/12/26 08:48:49;;;;;;;40.33;14.28;;;;;;;5.27;100.00;101806.09;1760379;80;21701;-89
2022/12/26 08:51:20;;;;;;;43.13;15.32;;;;;;;5.31;100.00;101806.00;1779324;80;21081;-89
2022/12/26 08:53:48;;;;;;;47.08;16.15;;;;;;;5.34;100.00;101807.47;1685269;84;21136;-90
2022/12/26 08:56:19;;;;;;;45.58;16.62;;;;;;;5.35;100.00;101803.24;1680710;84;21216;-89
2022/12/26 08:58:46;;;;;;;55.73;18.15;;;;;;;5.43;100.00;101800.42;1621439;88;21090;-89
2022/12/26 09:01:20;;;;;;;54.23;18.82;;;;;;;5.32;100.00;101791.61;1625981;88;21549;-89
2022/12/26 09:03:47;;;;;;;59.25;20.48;;;;;;;5.28;100.00;101792.21;1576274;91;21123;-90
2022/12/26 09:06:15;;;;;;;61.08;19.75;;;;;;;5.33;100.00;101800.48;1576396;91;21233;-88
2022/12/26 09:08:42;;;;;;;52.83;18.05;;;;;;;5.32;100.00;101799.63;1576316;91;21075;-89
2022/12/26 09:11:18;;;;;;;58.45;18.73;;;;;;;5.33;100.00;101797.80;1576402;91;21122;-90
2022/12/26 09:13:45;;;;;;;58.63;20.40;;;;;;;5.43;100.00;101795.59;1556070;91;21057;-89
2022/12/26 09:16:23;;;;;;;64.82;21.82;;;;;;;5.59;100.00;101801.13;1576105;91;21115;-89
2022/12/26 09:18:56;;;;;;;62.55;21.95;;;;;;;5.63;100.00;101806.42;1503065;95;21248;-90
2022/12/26 09:21:22;;;;;;;74.97;26.05;;;;;;;5.68;100.00;101803.98;1503364;95;21199;-89
2022/12/26 09:23:48;;;;;;;83.12;28.62;;;;;;;5.79;100.00;101807.42;1503076;95;21214;-90
2022/12/26 09:26:19;;;;;;;94.42;30.02;;;;;;;5.88;100.00;101810.75;1503496;95;21544;-89
2022/12/26 09:32:26;;;;;;;79.03;24.92;;;;;;;5.96;100.00;101805.80;1503025;95;21588;-90
2022/12/26 09:34:52;;;;;;;76.02;24.57;;;;;;;5.95;100.00;101808.16;1503375;95;21088;-90
2022/12/26 09:37:18;;;;;;;61.75;19.85;;;;;;;5.85;100.00;101806.66;1503276;95;21156;-90
2022/12/26 09:39:45;;;;;;;60.33;19.87;;;;;;;5.71;100.00;101799.58;1503184;95;21107;-90
2022/12/26 09:42:38;;;;;;;57.98;19.52;;;;;;;5.73;100.00;101806.05;1503412;95;21187;-91
2022/12/26 09:45:17;;;;;;;58.95;18.17;;;;;;;5.79;100.00;101802.58;1461070;98;21251;-90
2022/12/26 09:48:06;;;;;;;65.25;20.75;;;;;;;5.80;100.00;101802.41;1470948;97;21573;-89
2022/12/26 09:50:38;;;;;;;67.22;21.12;;;;;;;5.80;100.00;101803.73;1474493;96;21708;-89
2022/12/26 09:53:15;;;;;;;65.12;19.92;;;;;;;5.87;100.00;101803.24;1473535;97;21150;-90
2022/12/26 09:56:04;;;;;;;65.85;20.15;;;;;;;5.94;100.00;101802.48;1495707;94;21177;-89
2022/12/26 09:58:54;;;;;;;62.25;19.27;;;;;;;6.01;100.00;101792.13;1514199;92;21122;-90
2022/12/26 10:01:25;;;;;;;57.15;19.32;;;;;;;6.08;100.00;101797.50;1539403;86;21117;-90
2022/12/26 10:03:55;;;;;;;55.70;19.27;;;;;;;6.08;100.00;101795.64;1612283;86;21709;-90
2022/12/26 10:06:32;;;;;;;58.68;18.80;;;;;;;6.13;100.00;101797.73;1567663;89;21140;-89
2022/12/26 10:09:28;;;;;;;56.28;18.60;;;;;;;6.11;100.00;101795.77;1553936;89;21176;-91
2022/12/26 10:12:11;;;;;;;55.92;18.10;;;;;;;6.05;100.00;101784.00;1524969;92;21122;-91
2022/12/26 10:15:03;;;;;;;;;;;;;;;6.05;100.00;101784.52;1531358;91;21157;-91
2022/12/26 10:17:49;;;;;;;65.05;20.23;;;;;;;6.08;100.00;101792.15;1546684;89;20200;-89
2022/12/26 10:24:00;;;;;;;63.28;19.42;;;;;;;6.19;100.00;101796.92;1549704;91;21100;-89
2022/12/26 10:30:19;;;;;;;61.25;19.52;;;;;;;6.29;100.00;101804.56;1569087;91;21063;-89
2022/12/26 10:32:50;;;;;;;59.03;20.05;;;;;;;6.31;100.00;101797.99;1557636;90;21098;-88
2022/12/26 10:38:38;;;;;;;60.52;19.52;;;;;;;6.33;100.00;101790.59;1565053;91;21175;-88
2022/12/26 10:41:10;;;;;;;61.28;19.20;;;;;;;6.32;100.00;101786.77;1564309;90;21229;-88
2022/12/26 10:43:43;;;;;;;67.58;21.62;;;;;;;6.34;100.00;101782.05;1434003;99;21111;-89
2022/12/26 10:46:55;;;;;;;66.05;21.07;;;;;;;6.35;100.00;101791.23;1414649;99;21124;-89
2022/12/26 10:49:25;;;;;;;61.60;19.42;;;;;;;6.33;100.00;101788.44;1418323;100;21246;-88
2022/12/26 10:51:55;;;;;;;59.48;18.17;;;;;;;6.30;100.00;101782.97;1415260;99;22879;-88
2022/12/26 10:54:22;;;;;;;59.33;19.17;;;;;;;6.27;100.00;101787.38;1408109;101;21229;-88
2022/12/26 10:56:51;;;;;;;64.03;19.12;;;;;;;6.27;100.00;101791.40;1419551;99;21130;-90
2022/12/26 10:59:22;;;;;;;61.15;18.92;;;;;;;6.28;100.00;101790.36;1429211;99;21198;-90
2022/12/26 11:01:51;;;;;;;57.35;18.85;;;;;;;6.33;100.00;101787.09;1352858;104;21214;-89
2022/12/26 11:04:24;;;;;;;67.87;20.35;;;;;;;6.33;100.00;101788.44;1389078;101;21212;-90
2022/12/26 11:06:53;;;;;;;64.62;22.37;;;;;;;6.31;100.00;101794.49;1386496;101;28342;-88
2022/12/26 11:09:40;;;;;;;72.97;21.27;;;;;;;6.32;100.00;101790.29;1407481;99;21134;-88
2022/12/26 11:12:20;;;;;;;79.22;25.15;;;;;;;6.33;100.00;101791.11;1415791;98;21746;-92
2022/12/26 11:14:47;;;;;;;86.47;27.25;;;;;;;6.26;100.00;101799.09;1433629;99;21141;-90
2022/12/26 11:17:30;;;;;;;71.45;23.12;;;;;;;6.26;100.00;101798.28;1430008;99;21109;-90
2022/12/26 11:20:18;;;;;;;;;;;;;;;6.26;100.00;101799.62;1432181;98;21605;-88
2022/12/26 11:22:46;;;;;;;52.78;16.95;;;;;;;6.18;100.00;101799.30;1380417;103;20264;-88
2022/12/26 11:25:23;;;;;;;45.52;15.00;;;;;;;6.03;100.00;101795.92;1376504;103;21255;-87
2022/12/26 11:27:56;;;;;;;36.23;11.73;;;;;;;5.98;100.00;101801.89;1380916;102;21208;-91
2022/12/26 11:30:29;;;;;;;39.03;13.00;;;;;;;5.96;100.00;101803.94;1387315;102;22156;-88
2022/12/26 11:33:22;;;;;;;32.60;10.15;;;;;;;5.86;100.00;101812.83;1384532;102;21177;-90
2022/12/26 11:35:54;;;;;;;36.93;9.15;;;;;;;5.83;100.00;101815.89;1372983;103;21217;-90
2022/12/26 11:38:34;;;;;;;31.15;8.83;;;;;;;5.78;100.00;101808.45;1366437;103;21273;-88
2022/12/26 11:43:39;;;;;;;23.15;8.15;;;;;;;5.66;100.00;101820.22;1402890;101;21323;-90
2022/12/26 11:46:06;;;;;;;26.20;7.87;;;;;;;5.60;100.00;101817.51;1409979;101;21039;-89
2022/12/26 11:48:32;;;;;;;24.27;7.50;;;;;;;5.53;100.00;101820.63;1412260;101;21204;-89
2022/12/26 11:50:58;;;;;;;26.17;7.20;;;;;;;5.50;100.00;101823.22;1412242;100;21654;-89
2022/12/26 11:53:25;;;;;;;32.13;8.60;;;;;;;5.53;100.00;101827.31;1412244;101;21114;-88
2022/12/26 11:59:31;;;;;;;26.27;7.78;;;;;;;5.51;100.00;101824.86;1435416;97;21297;-89
2022/12/26 12:02:27;;;;;;;29.80;8.55;;;;;;;5.48;100.00;101823.91;1443586;97;21164;-90
2022/12/26 12:05:04;;;;;;;30.85;9.10;;;;;;;5.46;100.00;101822.76;1414565;98;22327;-89
2022/12/26 12:08:09;;;;;;;29.87;9.05;;;;;;;5.44;100.00;101826.16;1407477;97;21242;-88
2022/12/26 12:11:03;;;;;;;26.27;8.90;;;;;;;5.45;100.00;101830.47;1465278;94;21186;-89
2022/12/26 12:14:07;;;;;;;30.37;9.50;;;;;;;5.41;100.00;101830.56;1482301;94;21280;-85
2022/12/26 12:16:53;;;;;;;28.27;8.73;;;;;;;5.39;100.00;101834.44;1435972;96;21152;-87
2022/12/26 12:19:50;;;;;;;28.17;8.25;;;;;;;5.30;100.00;101832.42;1394541;100;21205;-92
2022/12/26 12:22:46;;;;;;;27.75;7.22;;;;;;;5.28;100.00;101838.98;1402988;99;21099;-88
2022/12/26 12:25:41;;;;;;;27.10;7.50;;;;;;;5.19;100.00;101839.63;1429331;97;21262;-86
2022/12/26 12:28:37;;;;;;;28.73;8.10;;;;;;;5.15;100.00;101839.19;1440591;98;21139;-88
2022/12/26 12:31:20;;;;;;;26.35;7.95;;;;;;;5.10;100.00;101843.46;1432993;97;21143;-88
2022/12/26 12:34:08;;;;;;;30.57;8.63;;;;;;;4.96;100.00;101844.66;1403404;99;21171;-87
2022/12/26 12:37:13;;;;;;;38.65;9.55;;;;;;;4.87;100.00;101840.98;1408981;98;21186;-89
2022/12/26 12:43:45;;;;;;;27.77;8.05;;;;;;;4.77;100.00;101845.32;1432382;99;21099;-94
2022/12/26 12:49:39;;;;;;;27.55;7.42;;;;;;;4.84;100.00;101841.38;1363157;104;21130;-88
2022/12/26 12:56:19;;;;;;;27.42;7.28;;;;;;;4.82;100.00;101850.89;1376994;102;21156;-88
2022/12/26 12:59:14;;;;;;;25.68;6.30;;;;;;;4.80;100.00;101850.79;1370317;102;21162;-88
2022/12/26 13:04:19;;;;;;;31.37;8.05;;;;;;;4.76;100.00;101856.52;1420265;99;27008;-89
2022/12/26 13:06:52;;;;;;;27.62;8.80;;;;;;;4.81;100.00;101861.78;1420922;99;21605;-89
2022/12/26 13:09:39;;;;;;;25.17;8.35;;;;;;;4.85;100.00;101859.86;1432255;99;21260;-88
2022/12/26 17:06:40;;;;;;;88.00;25.20;;;;;;;1.86;100.00;101891.02;1813498;78;25788;-89
2022/12/26 17:09:12;;;;;;;89.47;25.32;;;;;;;2.43;100.00;101892.62;1774978;80;21096;-89
2022/12/26 17:12:08;;;;;;;87.40;23.85;;;;;;;2.57;100.00;101885.24;1769818;80;21132;-89
2022/12/26 17:14:38;;;;;;;88.00;23.55;;;;;;;2.66;100.00;101886.84;1768842;80;21493;-90
2022/12/26 17:17:22;;;;;;;78.60;21.55;;;;;;;2.83;100.00;101879.59;1769276;79;21063;-89
2022/12/26 17:23:38;;;;;;;70.35;18.15;;;;;;;3.11;100.00;101871.88;1751060;80;21039;-90
2022/12/26 17:26:27;;;;;;;74.92;18.55;;;;;;;3.21;100.00;101870.81;1749812;80;21176;-90
2022/12/26 17:28:54;;;;;;;70.25;18.82;;;;;;;3.27;100.00;101868.78;1757807;80;21005;-90
2022/12/26 17:31:33;;;;;;;82.10;19.17;;;;;;;3.41;100.00;101862.64;1750739;80;21696;-92
2022/12/26 17:34:13;;;;;;;73.92;20.00;;;;;;;3.46;100.00;101860.77;1763665;80;20996;-89
2022/12/26 17:36:40;;;;;;;71.72;20.52;;;;;;;3.61;100.00;101854.95;1749260;80;21000;-93
2022/12/26 17:39:14;;;;;;;76.70;20.65;;;;;;;3.71;100.00;101848.05;1758770;80;21620;-90
2022/12/26 17:41:54;;;;;;;63.23;18.00;;;;;;;3.75;100.00;101843.47;1756510;80;21488;-89
2022/12/26 17:44:40;;;;;;;61.60;17.92;;;;;;;3.86;100.00;101843.02;1760897;80;21043;-95
2022/12/26 17:47:17;;;;;;;67.72;18.52;;;;;;;3.92;100.00;101836.63;1763198;80;21078;-89
2022/12/26 17:49:43;;;;;;;62.17;18.35;;;;;;;3.98;100.00;101841.22;1752022;80;21059;-89
2022/12/26 17:52:12;;;;;;;78.92;19.95;;;;;;;3.99;100.00;101838.87;1765455;80;21135;-93
2022/12/26 17:54:39;;;;;;;71.22;18.40;;;;;;;4.01;100.00;101851.01;1772349;80;21027;-90
2022/12/26 18:00:46;;;;;;;65.50;18.77;;;;;;;4.01;100.00;101847.52;1759153;80;21122;-91
2022/12/26 18:03:12;;;;;;;71.75;18.70;;;;;;;3.91;100.00;101855.78;1756151;80;21019;-89
2022/12/26 18:05:39;;;;;;;73.05;19.05;;;;;;;3.93;100.00;101861.77;1757402;80;21185;-89
2022/12/26 18:08:06;;;;;;;62.93;18.52;;;;;;;3.93;100.00;101858.28;1769662;80;21055;-90
2022/12/26 18:10:36;;;;;;;61.77;17.75;;;;;;;3.99;100.00;101857.53;1749217;80;21062;-89
2022/12/26 18:13:03;;;;;;;61.48;15.58;;;;;;;4.00;100.00;101860.52;1764446;80;21606;-89
2022/12/26 18:15:30;;;;;;;62.65;17.10;;;;;;;4.00;100.00;101860.03;1763641;80;21023;-89
2022/12/26 18:17:57;;;;;;;56.37;16.15;;;;;;;3.94;100.00;101860.78;1754669;80;21104;-89
2022/12/26 18:20:27;;;;;;;63.80;15.88;;;;;;;3.94;100.00;101862.11;1753876;80;21055;-89
2022/12/26 18:22:55;;;;;;;61.70;15.43;;;;;;;3.93;100.00;101860.95;1770044;80;21045;-89
2022/12/26 18:25:24;;;;;;;53.80;15.28;;;;;;;3.94;100.00;101864.78;1768434;80;21067;-87
2022/12/26 18:27:51;;;;;;;61.73;15.78;;;;;;;4.01;100.00;101859.52;1716746;83;21050;-88
2022/12/26 18:30:22;;;;;;;73.30;15.35;;;;;;;4.04;100.00;101854.64;1716307;83;21177;-88
2022/12/26 18:32:51;;;;;;;64.30;14.15;;;;;;;4.00;100.00;101852.52;1716201;83;21063;-90
2022/12/26 18:35:18;;;;;;;56.05;14.33;;;;;;;3.98;100.00;101857.23;1712934;83;21129;-90
2022/12/26 18:37:51;;;;;;;58.13;15.65;;;;;;;4.01;100.00;101851.52;1692067;83;21011;-90
2022/12/26 18:40:40;;;;;;;55.33;14.90;;;;;;;4.04;100.00;101853.82;1692528;83;21090;-90
2022/12/26 18:43:08;;;;;;;69.87;15.98;;;;;;;4.04;100.00;101846.64;1724156;82;21095;-89
2022/12/26 18:45:36;;;;;;;56.13;14.55;;;;;;;4.01;100.00;101848.86;1725759;82;21063;-89
2022/12/26 18:48:04;;;;;;;55.45;16.15;;;;;;;4.01;100.00;101864.86;1712951;82;21046;-90
2022/12/26 18:50:31;;;;;;;61.40;14.38;;;;;;;3.96;100.00;101861.40;1721343;82;21462;-93
2022/12/26 18:52:57;;;;;;;85.80;15.65;;;;;;;3.97;100.00;101865.73;1723799;82;21196;-91